createdAt,value
2019-05-03T00:00:16.054Z,6.50
2019-05-03T00:02:55.298Z,6.60
2019-05-03T00:05:32.325Z,6.60
2019-05-03T00:08:04.137Z,6.60
2019-05-03T00:10:33.180Z,6.60
2019-05-03T00:13:02.090Z,6.70
2019-05-03T00:15:40.478Z,6.60
2019-05-03T00:18:09.453Z,6.60
2019-05-03T00:20:38.279Z,6.60
2019-05-03T00:23:08.199Z,6.40
2019-05-03T00:25:37.142Z,6.30
2019-05-03T00:28:05.997Z,6.30
2019-05-03T00:30:35.053Z,6.20
2019-05-03T00:33:04.100Z,6.10
2019-05-03T00:35:51.966Z,6.00
2019-05-03T00:38:21.791Z,6.00
2019-05-03T00:40:52.370Z,5.90
2019-05-03T00:43:22.274Z,5.90
2019-05-03T00:45:52.353Z,5.90
2019-05-03T00:48:22.038Z,5.80
2019-05-03T00:50:54.135Z,5.70
2019-05-03T00:53:23.047Z,5.70
2019-05-03T00:55:52.444Z,5.70
2019-05-03T00:58:22.396Z,5.60
2019-05-03T01:00:52.440Z,5.60
2019-05-03T01:03:22.007Z,5.50
2019-05-03T01:05:52.730Z,5.60
2019-05-03T01:08:22.055Z,5.60
2019-05-03T01:10:51.691Z,5.50
2019-05-03T01:13:21.893Z,5.50
2019-05-03T01:16:11.818Z,5.50
2019-05-03T01:18:41.732Z,5.50
2019-05-03T01:21:11.724Z,5.40
2019-05-03T01:23:41.969Z,5.30
2019-05-03T01:26:11.891Z,5.30
2019-05-03T01:28:42.506Z,5.30
2019-05-03T01:31:12.092Z,5.30
2019-05-03T01:33:42.634Z,5.40
2019-05-03T01:36:12.143Z,5.30
2019-05-03T01:38:42.352Z,5.30
2019-05-03T01:41:12.296Z,5.30
2019-05-03T01:43:41.844Z,5.20
2019-05-03T01:46:12.019Z,5.20
2019-05-03T01:48:49.701Z,5.20
2019-05-03T01:51:27.819Z,5.10
2019-05-03T01:53:56.664Z,5.00
2019-05-03T01:56:25.593Z,5.00
2019-05-03T01:58:54.570Z,5.00
2019-05-03T02:01:35.415Z,5.00
2019-05-03T02:04:12.215Z,5.00
2019-05-03T02:06:42.461Z,4.90
2019-05-03T02:09:12.211Z,5.00
2019-05-03T02:11:42.138Z,4.90
2019-05-03T02:14:12.379Z,4.90
2019-05-03T02:16:42.040Z,4.90
2019-05-03T02:19:12.627Z,4.80
2019-05-03T02:21:41.791Z,4.70
2019-05-03T02:24:11.849Z,4.70
2019-05-03T02:26:42.477Z,4.70
2019-05-03T02:29:12.551Z,4.70
2019-05-03T02:31:43.626Z,4.80
2019-05-03T02:34:12.727Z,4.70
2019-05-03T02:36:42.843Z,4.60
2019-05-03T02:39:13.775Z,4.70
2019-05-03T02:41:45.216Z,4.70
2019-05-03T02:44:15.722Z,4.70
2019-05-03T02:46:56.368Z,4.70
2019-05-03T02:49:31.576Z,4.70
2019-05-03T02:52:00.446Z,4.70
2019-05-03T02:54:29.503Z,4.70
2019-05-03T02:56:58.542Z,4.60
2019-05-03T02:59:27.406Z,4.60
2019-05-03T03:01:56.472Z,4.60
2019-05-03T03:04:26.571Z,4.60
2019-05-03T03:06:57.850Z,4.60
2019-05-03T03:09:28.240Z,4.70
2019-05-03T03:11:59.252Z,4.60
2019-05-03T03:14:30.180Z,4.60
2019-05-03T03:17:02.185Z,4.60
2019-05-03T03:19:32.400Z,4.50
2019-05-03T03:22:06.192Z,4.50
2019-05-03T03:24:37.103Z,4.60
2019-05-03T03:27:08.164Z,4.50
2019-05-03T03:29:38.691Z,4.50
2019-05-03T03:32:29.076Z,4.60
2019-05-03T03:35:21.931Z,4.50
2019-05-03T03:37:50.435Z,4.60
2019-05-03T03:40:20.776Z,4.50
2019-05-03T03:42:50.659Z,4.50
2019-05-03T03:45:19.591Z,4.50
2019-05-03T03:47:51.386Z,4.50
2019-05-03T03:50:21.467Z,4.50
2019-05-03T03:52:52.217Z,4.50
2019-05-03T03:55:26.291Z,4.50
2019-05-03T03:57:55.680Z,4.50
2019-05-03T04:00:25.845Z,4.50
2019-05-03T04:02:55.366Z,4.50
2019-05-03T04:05:25.392Z,4.60
2019-05-03T04:07:56.088Z,4.50
2019-05-03T04:10:26.118Z,4.50
2019-05-03T04:12:56.058Z,4.50
2019-05-03T04:15:32.653Z,4.50
2019-05-03T04:18:11.643Z,4.60
2019-05-03T04:20:40.753Z,4.60
2019-05-03T04:23:10.487Z,4.60
2019-05-03T04:25:40.027Z,4.60
2019-05-03T04:28:10.782Z,4.70
2019-05-03T04:30:39.919Z,4.70
2019-05-03T04:33:08.838Z,4.80
2019-05-03T04:35:41.125Z,4.80
2019-05-03T04:38:10.322Z,4.90
2019-05-03T04:40:45.395Z,4.90
2019-05-03T04:43:16.296Z,4.90
2019-05-03T04:48:35.977Z,5.00
2019-05-03T04:51:08.557Z,5.10
2019-05-03T04:53:40.107Z,5.20
2019-05-03T04:56:09.447Z,5.10
2019-05-03T04:58:38.547Z,5.10
2019-05-03T05:01:07.797Z,5.20
2019-05-03T05:03:36.936Z,5.30
2019-05-03T05:06:06.582Z,5.20
2019-05-03T05:08:36.024Z,5.20
2019-05-03T05:14:10.478Z,5.40
2019-05-03T05:16:39.895Z,5.40
2019-05-03T05:19:11.503Z,5.40
2019-05-03T05:21:50.214Z,5.50
2019-05-03T05:24:19.256Z,5.60
2019-05-03T05:26:55.056Z,5.60
2019-05-03T05:29:26.396Z,5.60
2019-05-03T05:31:55.546Z,5.70
2019-05-03T05:34:24.770Z,5.70
2019-05-03T05:36:56.245Z,5.80
2019-05-03T05:39:25.402Z,5.80
2019-05-03T05:41:55.464Z,5.80
2019-05-03T05:44:24.875Z,5.80
2019-05-03T05:47:04.591Z,5.90
2019-05-03T05:49:50.351Z,5.90
2019-05-03T05:52:19.587Z,6.00
2019-05-03T05:54:55.244Z,6.10
2019-05-03T05:57:34.701Z,6.30
2019-05-03T06:00:07.968Z,6.20
2019-05-03T06:02:37.018Z,6.40
2019-05-03T06:05:06.548Z,6.40
2019-05-03T06:07:57.721Z,6.50
2019-05-03T06:10:45.104Z,6.60
2019-05-03T06:13:54.672Z,6.70
2019-05-03T06:16:45.377Z,6.80
2019-05-03T06:19:18.334Z,6.90
2019-05-03T06:21:54.761Z,7.00
2019-05-03T06:24:31.366Z,7.20
2019-05-03T06:27:09.377Z,7.40
2019-05-03T06:29:39.894Z,7.70
2019-05-03T06:32:15.349Z,7.90
2019-05-03T06:34:45.537Z,8.00
2019-05-03T06:37:16.305Z,7.90
2019-05-03T06:39:45.558Z,8.00
2019-05-03T06:42:18.994Z,7.90
2019-05-03T06:44:46.952Z,7.80
2019-05-03T06:47:15.894Z,7.80
2019-05-03T06:49:48.458Z,7.80
2019-05-03T06:52:19.693Z,7.90
2019-05-03T06:54:47.061Z,8.10
2019-05-03T06:57:17.693Z,8.30
2019-05-03T06:59:55.335Z,8.40
2019-05-03T07:02:31.395Z,8.30
2019-05-03T07:05:00.707Z,8.20
2019-05-03T07:08:00.521Z,8.20
2019-05-03T07:10:39.373Z,8.20
2019-05-03T07:13:09.015Z,8.20
2019-05-03T07:15:38.061Z,8.10
2019-05-03T07:18:07.151Z,8.10
2019-05-03T07:20:51.183Z,8.40
2019-05-03T07:23:20.830Z,8.60
2019-05-03T07:25:49.810Z,8.70
2019-05-03T07:28:18.745Z,8.90
2019-05-03T07:30:47.769Z,8.90
2019-05-03T07:33:22.802Z,8.80
2019-05-03T07:35:54.666Z,8.80
2019-05-03T07:38:24.663Z,8.90
2019-05-03T07:40:54.978Z,9.00
2019-05-03T07:43:24.656Z,8.90
2019-05-03T07:45:55.287Z,9.00
2019-05-03T07:48:25.511Z,9.00
2019-05-03T07:50:54.775Z,9.10
2019-05-03T07:53:25.180Z,9.20
2019-05-03T07:56:05.064Z,9.10
2019-05-03T07:58:35.165Z,9.00
2019-05-03T08:01:09.799Z,9.00
2019-05-03T08:03:37.470Z,9.00
2019-05-03T08:06:06.509Z,9.00
2019-05-03T08:08:35.731Z,9.10
2019-05-03T08:11:06.629Z,9.20
2019-05-03T08:13:55.160Z,9.30
2019-05-03T08:16:25.193Z,9.40
2019-05-03T08:18:55.931Z,9.30
2019-05-03T08:21:25.481Z,9.40
2019-05-03T08:23:55.659Z,9.50
2019-05-03T08:26:25.629Z,9.60
2019-05-03T08:28:55.558Z,9.70
2019-05-03T08:31:41.918Z,9.60
2019-05-03T08:34:31.398Z,9.60
2019-05-03T08:37:16.485Z,9.70
2019-05-03T08:39:45.599Z,9.90
2019-05-03T08:42:26.111Z,10.20
2019-05-03T08:44:55.454Z,10.30
2019-05-03T08:47:26.196Z,10.20
2019-05-03T08:49:55.693Z,10.20
2019-05-03T08:52:24.955Z,10.20
2019-05-03T08:54:56.178Z,10.20
2019-05-03T08:57:25.626Z,10.10
2019-05-03T08:59:55.079Z,10.00
2019-05-03T09:02:25.843Z,9.90
2019-05-03T09:04:55.278Z,9.80
2019-05-03T09:07:25.367Z,9.90
2019-05-03T09:10:18.831Z,10.00
2019-05-03T09:13:07.860Z,10.20
2019-05-03T09:15:37.426Z,10.20
2019-05-03T09:18:07.339Z,10.10
2019-05-03T09:20:37.905Z,9.70
2019-05-03T09:23:09.429Z,9.20
2019-05-03T09:25:38.499Z,8.90
2019-05-03T09:28:08.120Z,8.90
2019-05-03T09:31:05.658Z,8.80
2019-05-03T09:34:18.337Z,8.80
2019-05-03T09:37:55.572Z,8.90
2019-05-03T09:43:31.459Z,9.30
2019-05-03T09:46:05.008Z,9.50
2019-05-03T09:48:34.647Z,9.70
2019-05-03T09:51:39.283Z,9.70
2019-05-03T09:57:38.063Z,10.10
2019-05-03T10:07:22.775Z,10.40
2019-05-03T10:09:57.647Z,10.50
2019-05-03T10:12:26.588Z,10.40
2019-05-03T10:14:55.750Z,10.30
2019-05-03T10:17:45.239Z,10.10
2019-05-03T10:20:19.449Z,9.70
2019-05-03T10:22:48.367Z,9.30
2019-05-03T10:25:17.601Z,9.10
2019-05-03T10:27:46.691Z,9.20
2019-05-03T10:30:27.479Z,9.30
2019-05-03T10:33:26.116Z,9.30
2019-05-03T10:35:55.119Z,9.40
2019-05-03T10:38:24.617Z,9.40
2019-05-03T10:40:55.020Z,9.50
2019-05-03T10:43:24.780Z,9.70
2019-05-03T10:45:55.802Z,10.00
2019-05-03T10:48:25.113Z,10.30
2019-05-03T10:50:56.244Z,10.50
2019-05-03T10:53:29.785Z,10.90
2019-05-03T10:56:26.716Z,11.20
2019-05-03T10:58:58.499Z,11.40
2019-05-03T11:01:35.908Z,11.70
2019-05-03T11:04:05.443Z,11.80
2019-05-03T11:06:35.493Z,11.80
2019-05-03T11:09:05.950Z,11.80
2019-05-03T11:11:35.283Z,11.60
2019-05-03T11:14:05.509Z,11.60
2019-05-03T11:16:35.146Z,11.60
2019-05-03T11:19:05.471Z,11.60
2019-05-03T11:21:34.903Z,11.40
2019-05-03T11:24:04.149Z,11.30
2019-05-03T11:26:34.971Z,11.30
2019-05-03T11:29:05.131Z,11.40
2019-05-03T11:32:00.601Z,11.30
2019-05-03T11:34:35.457Z,11.30
2019-05-03T11:37:22.293Z,10.90
2019-05-03T11:39:52.036Z,10.80
2019-05-03T11:42:20.820Z,10.50
2019-05-03T11:44:49.678Z,10.30
2019-05-03T11:47:18.806Z,10.30
2019-05-03T11:49:47.633Z,10.30
2019-05-03T11:52:17.530Z,10.40
2019-05-03T11:54:46.440Z,10.30
2019-05-03T11:57:26.355Z,10.20
2019-05-03T11:59:55.536Z,10.00
2019-05-03T12:02:42.256Z,9.80
2019-05-03T12:05:17.804Z,9.60
2019-05-03T12:07:46.573Z,9.50
2019-05-03T12:10:30.787Z,9.60
2019-05-03T12:12:47.984Z,9.70
2019-05-03T12:15:18.326Z,9.80
2019-05-03T12:17:54.182Z,9.80
2019-05-03T12:20:21.608Z,10.00
2019-05-03T12:22:51.374Z,10.10
2019-05-03T12:25:21.258Z,10.40
2019-05-03T12:27:50.408Z,10.50
2019-05-03T12:30:19.407Z,10.60
2019-05-03T12:32:48.212Z,10.40
2019-05-03T12:35:16.966Z,10.10
2019-05-03T12:37:45.768Z,9.80
2019-05-03T12:40:15.126Z,9.70
2019-05-03T12:42:45.451Z,9.70
2019-05-03T12:45:15.261Z,9.70
2019-05-03T12:47:45.295Z,9.80
2019-05-03T12:50:15.660Z,9.90
2019-05-03T12:52:50.348Z,9.90
2019-05-03T12:55:15.484Z,9.90
2019-05-03T12:57:45.841Z,10.00
2019-05-03T13:00:26.785Z,10.20
2019-05-03T13:02:59.785Z,10.30
2019-05-03T13:05:29.473Z,10.40
2019-05-03T13:08:21.958Z,10.50
2019-05-03T13:10:50.823Z,10.60
2019-05-03T13:13:19.731Z,10.70
2019-05-03T13:15:50.035Z,10.90
2019-05-03T13:18:18.968Z,11.00
2019-05-03T13:20:47.858Z,11.10
2019-05-03T13:23:16.809Z,10.90
2019-05-03T13:25:45.736Z,10.80
2019-05-03T13:28:15.313Z,10.60
2019-05-03T13:30:45.274Z,10.60
2019-05-03T13:33:15.186Z,10.70
2019-05-03T13:35:44.735Z,10.60
2019-05-03T13:38:13.780Z,10.60
2019-05-03T13:40:45.172Z,10.60
2019-05-03T13:43:15.012Z,10.50
2019-05-03T13:45:45.059Z,10.50
2019-05-03T13:48:16.845Z,10.50
2019-05-03T13:50:44.780Z,10.40
2019-05-03T13:53:16.006Z,10.20
2019-05-03T13:55:44.647Z,10.00
2019-05-03T13:58:14.731Z,9.80
2019-05-03T14:00:45.334Z,9.70
2019-05-03T14:03:15.264Z,9.70
2019-05-03T14:06:07.643Z,9.70
2019-05-03T14:08:35.055Z,9.80
2019-05-03T14:11:05.135Z,9.90
2019-05-03T14:13:35.345Z,10.00
2019-05-03T14:16:05.693Z,10.10
2019-05-03T14:18:35.380Z,10.30
2019-05-03T14:21:24.758Z,10.50
2019-05-03T14:24:12.846Z,10.60
2019-05-03T14:26:44.812Z,10.60
2019-05-03T14:29:14.899Z,10.60
2019-05-03T14:31:47.422Z,10.60
2019-05-03T14:34:17.464Z,10.80
2019-05-03T14:36:46.634Z,10.80
2019-05-03T14:39:15.620Z,10.80
2019-05-03T14:41:46.492Z,10.90
2019-05-03T14:44:17.901Z,10.90
2019-05-03T14:46:46.016Z,11.00
2019-05-03T14:49:14.955Z,10.80
2019-05-03T14:51:45.570Z,10.90
2019-05-03T14:54:14.534Z,10.90
2019-05-03T14:56:52.298Z,10.90
2019-05-03T14:59:46.615Z,10.90
2019-05-03T15:02:24.588Z,10.90
2019-05-03T15:04:54.820Z,11.00
2019-05-03T15:07:25.544Z,11.10
2019-05-03T15:09:55.318Z,11.00
2019-05-03T15:12:25.293Z,10.80
2019-05-03T15:14:54.662Z,10.90
2019-05-03T15:17:24.685Z,10.90
2019-05-03T15:19:54.706Z,11.00
2019-05-03T15:22:25.349Z,11.10
2019-05-03T15:24:54.648Z,11.20
2019-05-03T15:27:24.803Z,11.10
2019-05-03T15:29:56.897Z,11.20
2019-05-03T15:32:25.982Z,11.30
2019-05-03T15:34:55.338Z,11.50
2019-05-03T15:37:25.460Z,11.60
2019-05-03T15:39:54.757Z,11.50
2019-05-03T15:42:24.853Z,11.50
2019-05-03T15:45:00.482Z,11.40
2019-05-03T15:47:33.372Z,11.40
2019-05-03T15:50:04.758Z,11.30
2019-05-03T15:52:35.186Z,11.10
2019-05-03T15:55:05.930Z,10.90
2019-05-03T15:57:35.705Z,10.80
2019-05-03T16:00:06.628Z,10.60
2019-05-03T16:02:35.431Z,10.60
2019-05-03T16:05:04.943Z,10.60
2019-05-03T16:07:35.519Z,10.60
2019-05-03T16:10:05.176Z,10.50
2019-05-03T16:12:34.428Z,10.40
2019-05-03T16:15:04.757Z,10.40
2019-05-03T16:17:35.285Z,10.40
2019-05-03T16:20:05.129Z,10.40
2019-05-03T16:22:34.053Z,10.40
2019-05-03T16:25:04.875Z,10.50
2019-05-03T16:27:52.923Z,10.50
2019-05-03T16:30:59.287Z,10.50
2019-05-03T16:33:28.454Z,10.50
2019-05-03T16:35:57.401Z,10.50
2019-05-03T16:38:26.269Z,10.30
2019-05-03T16:40:55.156Z,10.30
2019-05-03T16:43:25.643Z,10.30
2019-05-03T16:45:55.153Z,10.30
2019-05-03T16:48:44.774Z,10.30
2019-05-03T16:51:15.166Z,10.40
2019-05-03T16:53:44.648Z,10.30
2019-05-03T16:56:16.609Z,10.20
2019-05-03T16:58:44.634Z,10.20
2019-05-03T17:01:17.906Z,10.10
2019-05-03T17:03:55.006Z,10.10
2019-05-03T17:06:32.390Z,10.00
2019-05-03T17:09:09.305Z,9.90
2019-05-03T17:11:38.402Z,9.80
2019-05-03T17:14:07.385Z,9.90
2019-05-03T17:16:36.329Z,9.90
2019-05-03T17:19:05.968Z,9.80
2019-05-03T17:21:35.070Z,9.80
2019-05-03T17:24:06.036Z,9.70
2019-05-03T17:26:35.351Z,9.40
2019-05-03T17:29:04.689Z,9.00
2019-05-03T17:31:35.217Z,8.70
2019-05-03T17:34:05.577Z,8.60
2019-05-03T17:36:35.035Z,8.60
2019-05-03T17:39:08.647Z,8.40
2019-05-03T17:41:57.785Z,8.30
2019-05-03T17:44:35.886Z,8.20
2019-05-03T17:47:04.665Z,8.20
2019-05-03T17:49:34.787Z,8.10
2019-05-03T17:52:23.012Z,8.10
2019-05-03T17:55:11.559Z,8.10
2019-05-03T17:57:55.346Z,8.10
2019-05-03T18:00:34.960Z,8.00
2019-05-03T18:03:04.774Z,8.00
2019-05-03T18:05:45.240Z,8.00
2019-05-03T18:08:31.892Z,8.00
2019-05-03T18:11:08.347Z,8.00
2019-05-03T18:13:37.356Z,7.90
2019-05-03T18:16:06.473Z,7.80
2019-05-03T18:18:35.516Z,7.80
2019-05-03T18:21:04.829Z,7.70
2019-05-03T18:23:35.136Z,7.70
2019-05-03T18:26:05.262Z,7.70
2019-05-03T18:28:35.547Z,7.70
2019-05-03T18:31:05.339Z,7.60
2019-05-03T18:33:35.550Z,7.50
2019-05-03T18:36:05.568Z,7.40
2019-05-03T18:38:39.622Z,7.30
2019-05-03T18:41:09.910Z,7.30
2019-05-03T18:43:59.557Z,7.30
2019-05-03T18:46:31.701Z,7.40
2019-05-03T18:49:00.559Z,7.30
2019-05-03T18:51:48.803Z,6.90
2019-05-03T18:54:17.890Z,6.40
2019-05-03T18:56:46.782Z,6.00
2019-05-03T18:59:16.141Z,5.80
2019-05-03T19:01:45.316Z,5.70
2019-05-03T19:04:32.414Z,5.60
2019-05-03T19:07:23.407Z,5.60
2019-05-03T19:10:06.180Z,5.50
2019-05-03T19:12:39.475Z,5.40
2019-05-03T19:15:09.571Z,5.40
2019-05-03T19:17:44.949Z,5.40
2019-05-03T19:20:17.477Z,5.30
2019-05-03T19:22:47.135Z,5.30
2019-05-03T19:25:16.235Z,5.20
2019-05-03T19:27:45.238Z,5.20
2019-05-03T19:30:14.942Z,5.20
2019-05-03T19:32:46.475Z,5.20
2019-05-03T19:35:15.684Z,5.20
2019-05-03T19:37:46.642Z,5.10
2019-05-03T19:40:15.899Z,5.20
2019-05-03T19:42:44.880Z,5.20
2019-05-03T19:45:15.237Z,5.30
2019-05-03T19:47:44.848Z,5.40
2019-05-03T19:50:15.755Z,5.50
2019-05-03T19:53:07.981Z,5.60
2019-05-03T19:55:37.085Z,5.60
2019-05-03T19:58:06.397Z,5.70
2019-05-03T20:00:57.586Z,5.70
2019-05-03T20:03:36.455Z,5.70
2019-05-03T20:06:25.144Z,5.80
2019-05-03T20:09:07.070Z,5.90
2019-05-03T20:11:36.110Z,5.90
2019-05-03T20:14:05.252Z,5.90
2019-05-03T20:16:34.743Z,6.00
2019-05-03T20:19:17.157Z,6.00
2019-05-03T20:21:34.802Z,6.00
2019-05-03T20:24:05.570Z,6.10
2019-05-03T20:26:34.940Z,6.00
2019-05-03T20:29:03.962Z,6.00
2019-05-03T20:31:35.399Z,6.10
2019-05-03T20:34:05.346Z,6.10
2019-05-03T20:36:35.093Z,6.10
2019-05-03T20:39:06.317Z,6.10
2019-05-03T20:41:35.339Z,6.00
2019-05-03T20:44:41.671Z,6.00
2019-05-03T20:47:18.731Z,5.90
2019-05-03T20:50:06.917Z,5.80
2019-05-03T20:52:36.233Z,5.80
2019-05-03T20:55:05.287Z,5.70
2019-05-03T20:57:35.309Z,5.70
2019-05-03T21:00:05.988Z,5.60
2019-05-03T21:02:34.818Z,5.60
2019-05-03T21:05:05.310Z,5.50
2019-05-03T21:07:35.178Z,5.40
2019-05-03T21:10:05.983Z,5.30
2019-05-03T21:12:35.353Z,5.30
2019-05-03T21:15:06.529Z,5.30
2019-05-03T21:17:55.486Z,5.30
2019-05-03T21:20:41.862Z,5.30
2019-05-03T21:23:11.895Z,5.20
2019-05-03T21:26:03.485Z,5.10
2019-05-03T21:28:16.170Z,5.10
2019-05-03T21:30:45.430Z,5.00
2019-05-03T21:33:15.785Z,5.00
2019-05-03T21:35:45.232Z,5.10
2019-05-03T21:38:14.376Z,5.10
2019-05-03T21:40:45.194Z,5.20
2019-05-03T21:43:15.231Z,5.10
2019-05-03T21:45:49.393Z,5.00
2019-05-03T21:48:22.063Z,4.90
2019-05-03T21:50:50.901Z,4.80
2019-05-03T21:53:20.707Z,4.70
2019-05-03T21:55:49.604Z,4.70
2019-05-03T21:58:18.585Z,4.60
2019-05-03T22:00:54.687Z,4.50
2019-05-03T22:03:25.224Z,4.50
2019-05-03T22:05:56.001Z,4.50
2019-05-03T22:08:24.930Z,4.40
2019-05-03T22:10:55.969Z,4.40
2019-05-03T22:13:24.989Z,4.40
2019-05-03T22:16:02.454Z,4.40
2019-05-03T22:18:31.901Z,4.30
2019-05-03T22:21:10.205Z,4.30
2019-05-03T22:23:49.904Z,4.30
2019-05-03T22:26:20.433Z,4.30
2019-05-03T22:28:49.340Z,4.20
2019-05-03T22:31:18.449Z,4.20
2019-05-03T22:33:47.239Z,4.20
2019-05-03T22:36:16.056Z,4.20
2019-05-03T22:38:45.390Z,4.20
2019-05-03T22:41:14.803Z,4.20
2019-05-03T22:43:45.660Z,4.10
2019-05-03T22:46:14.664Z,4.10
2019-05-03T22:48:44.956Z,4.10
2019-05-03T22:51:15.141Z,4.10
2019-05-03T22:53:44.814Z,4.00
2019-05-03T22:56:14.448Z,4.10
2019-05-03T22:58:45.631Z,4.00
2019-05-03T23:01:16.439Z,4.00
2019-05-03T23:03:45.449Z,4.00
2019-05-03T23:06:22.426Z,4.00
2019-05-03T23:08:44.942Z,4.00
2019-05-03T23:11:13.736Z,4.10
2019-05-03T23:13:44.529Z,4.10
2019-05-03T23:16:14.430Z,4.20
2019-05-03T23:18:44.312Z,4.20
2019-05-03T23:21:18.908Z,4.30
2019-05-03T23:23:54.835Z,4.40
2019-05-03T23:26:25.402Z,4.40
2019-05-03T23:28:55.136Z,4.50
2019-05-03T23:31:25.183Z,4.50
2019-05-03T23:33:54.578Z,4.60
2019-05-03T23:36:33.093Z,4.70
2019-05-03T23:38:54.626Z,4.80
2019-05-03T23:41:24.526Z,4.90
2019-05-03T23:43:53.477Z,4.80
2019-05-03T23:46:28.189Z,4.60
2019-05-03T23:48:56.954Z,4.60
2019-05-03T23:51:44.402Z,4.60
2019-05-03T23:54:14.955Z,4.50
2019-05-03T23:56:45.837Z,4.40
2019-05-03T23:59:15.022Z,4.40
